createdAt,value
2022-12-20T00:01:40.992Z,86.82
2022-12-20T00:04:11.062Z,89.05
2022-12-20T00:06:38.726Z,91.82
2022-12-20T00:09:09.367Z,83.75
2022-12-20T00:11:41.094Z,80.50
2022-12-20T00:14:10.521Z,89.40
2022-12-20T00:16:38.230Z,82.90
2022-12-20T00:19:07.818Z,85.38
2022-12-20T00:21:36.372Z,83.85
2022-12-20T00:24:06.195Z,77.93
2022-12-20T00:26:35.696Z,88.97
2022-12-20T00:29:03.426Z,79.10
2022-12-20T00:31:32.636Z,82.75
2022-12-20T00:34:01.170Z,83.88
2022-12-20T00:36:31.926Z,80.40
2022-12-20T00:39:01.447Z,80.30
2022-12-20T00:41:33.586Z,84.40
2022-12-20T00:44:02.111Z,80.10
2022-12-20T00:46:31.710Z,84.18
2022-12-20T00:49:00.111Z,76.88
2022-12-20T00:51:32.529Z,80.75
2022-12-20T00:53:59.982Z,74.55
2022-12-20T00:56:27.530Z,80.47
2022-12-20T00:59:00.166Z,77.28
2022-12-20T01:01:32.662Z,78.63
2022-12-20T01:04:01.198Z,81.70
2022-12-20T01:06:30.226Z,81.32
2022-12-20T01:08:58.287Z,82.13
2022-12-20T01:11:35.938Z,82.35
2022-12-20T01:14:15.567Z,83.00
2022-12-20T01:16:46.442Z,87.90
2022-12-20T01:19:18.438Z,86.47
2022-12-20T01:21:45.957Z,82.00
2022-12-20T01:24:20.036Z,89.35
2022-12-20T01:26:47.989Z,82.85
2022-12-20T01:29:16.019Z,86.15
2022-12-20T01:31:44.605Z,82.90
2022-12-20T01:34:12.462Z,83.57
2022-12-20T01:36:40.560Z,80.95
2022-12-20T01:39:14.479Z,80.13
2022-12-20T01:41:45.329Z,85.40
2022-12-20T01:44:18.538Z,85.38
2022-12-20T01:46:49.751Z,80.82
2022-12-20T01:49:25.825Z,81.80
2022-12-20T01:52:23.041Z,80.43
2022-12-20T01:55:16.036Z,80.70
2022-12-20T01:57:59.483Z,75.88
2022-12-20T02:00:26.947Z,79.35
2022-12-20T02:02:56.018Z,80.50
2022-12-20T02:05:24.180Z,78.45
2022-12-20T02:07:56.064Z,79.47
2022-12-20T02:10:34.534Z,80.25
2022-12-20T02:13:20.264Z,70.50
2022-12-20T02:15:57.644Z,60.30
2022-12-20T02:18:46.136Z,61.00
2022-12-20T02:21:34.834Z,59.78
2022-12-20T02:25:16.978Z,56.60
2022-12-20T02:28:12.605Z,60.47
2022-12-20T02:30:45.897Z,56.57
2022-12-20T02:33:15.082Z,62.35
2022-12-20T02:35:43.040Z,60.25
2022-12-20T02:38:34.859Z,60.60
2022-12-20T02:41:25.467Z,63.75
2022-12-20T02:44:20.713Z,59.83
2022-12-20T02:46:49.095Z,61.33
2022-12-20T02:49:23.865Z,59.88
2022-12-20T02:51:54.506Z,68.37
2022-12-20T02:54:22.621Z,67.30
2022-12-20T02:57:39.329Z,66.53
2022-12-20T03:00:19.321Z,67.97
2022-12-20T03:03:07.165Z,69.18
2022-12-20T03:05:44.482Z,68.97
2022-12-20T03:08:12.432Z,77.73
2022-12-20T03:10:39.726Z,72.95
2022-12-20T03:13:07.658Z,72.63
2022-12-20T03:15:37.044Z,75.40
2022-12-20T03:18:04.908Z,76.00
2022-12-20T03:20:32.347Z,77.25
2022-12-20T03:22:59.764Z,72.18
2022-12-20T03:25:27.623Z,77.80
2022-12-20T03:27:57.685Z,77.07
2022-12-20T03:30:26.222Z,79.32
2022-12-20T03:32:53.539Z,75.13
2022-12-20T03:35:20.879Z,78.55
2022-12-20T03:37:48.088Z,75.72
2022-12-20T03:40:16.129Z,74.70
2022-12-20T03:42:44.491Z,75.70
2022-12-20T03:45:11.907Z,72.15
2022-12-20T03:47:39.527Z,75.70
2022-12-20T03:50:08.173Z,75.35
2022-12-20T03:52:36.321Z,73.82
2022-12-20T03:55:06.203Z,71.10
2022-12-20T03:57:40.409Z,77.25
2022-12-20T04:00:19.027Z,70.85
2022-12-20T04:02:49.032Z,76.07
2022-12-20T04:05:16.749Z,79.68
2022-12-20T04:07:45.288Z,80.50
2022-12-20T04:10:12.847Z,75.43
2022-12-20T04:12:40.112Z,77.15
2022-12-20T04:15:11.069Z,75.70
2022-12-20T04:17:40.654Z,77.68
2022-12-20T04:20:21.635Z,77.68
2022-12-20T04:22:57.601Z,85.22
2022-12-20T04:25:24.924Z,90.13
2022-12-20T04:27:55.311Z,85.85
2022-12-20T04:30:22.727Z,81.90
2022-12-20T04:32:54.577Z,84.53
2022-12-20T04:35:22.480Z,82.65
2022-12-20T04:37:50.224Z,81.78
2022-12-20T04:40:18.457Z,82.15
2022-12-20T04:42:49.258Z,83.45
2022-12-20T04:45:17.488Z,86.78
2022-12-20T04:47:44.991Z,86.95
2022-12-20T04:50:14.665Z,82.35
2022-12-20T04:53:02.812Z,84.07
2022-12-20T04:55:32.022Z,85.05
2022-12-20T04:58:03.736Z,87.75
2022-12-20T05:00:35.584Z,86.38
2022-12-20T05:03:10.844Z,79.75
2022-12-20T05:05:38.202Z,83.43
2022-12-20T05:08:05.856Z,82.10
2022-12-20T05:10:33.156Z,83.20
2022-12-20T05:13:07.438Z,84.88
2022-12-20T05:15:40.336Z,83.70
2022-12-20T05:18:07.815Z,85.00
2022-12-20T05:20:44.217Z,82.50
2022-12-20T05:23:31.263Z,82.57
2022-12-20T05:26:18.485Z,78.20
2022-12-20T05:28:46.151Z,82.43
2022-12-20T05:31:13.563Z,77.75
2022-12-20T05:33:40.736Z,76.95
2022-12-20T05:36:09.238Z,81.45
2022-12-20T05:38:36.826Z,81.35
2022-12-20T05:41:11.105Z,81.25
2022-12-20T05:43:38.438Z,78.75
2022-12-20T05:46:06.419Z,83.82
2022-12-20T05:48:42.598Z,77.80
2022-12-20T05:51:11.255Z,75.53
2022-12-20T05:53:55.513Z,78.22
2022-12-20T05:56:35.055Z,75.30
2022-12-20T05:59:02.384Z,74.55
2022-12-20T06:01:29.713Z,75.97
2022-12-20T06:03:59.571Z,77.28
2022-12-20T06:06:27.112Z,80.95
2022-12-20T06:08:56.201Z,73.63
2022-12-20T06:11:37.656Z,69.93
2022-12-20T06:14:09.216Z,76.80
2022-12-20T06:16:39.980Z,72.50
2022-12-20T06:19:09.576Z,74.68
2022-12-20T06:21:37.197Z,69.40
2022-12-20T06:24:06.068Z,67.88
2022-12-20T06:26:36.565Z,75.35
2022-12-20T06:29:09.133Z,75.45
2022-12-20T06:31:51.844Z,72.53
2022-12-20T06:34:19.351Z,76.53
2022-12-20T06:36:46.833Z,73.75
2022-12-20T06:39:19.295Z,69.55
2022-12-20T06:41:56.910Z,72.82
2022-12-20T06:44:24.618Z,71.13
2022-12-20T06:46:51.968Z,76.25
2022-12-20T06:49:19.502Z,73.00
2022-12-20T06:51:47.771Z,69.22
2022-12-20T06:54:15.517Z,69.03
2022-12-20T06:56:42.815Z,73.20
2022-12-20T06:59:12.320Z,70.30
2022-12-20T07:01:39.695Z,69.75
2022-12-20T07:04:06.984Z,73.22
2022-12-20T07:06:34.420Z,67.05
2022-12-20T07:09:02.230Z,73.82
2022-12-20T07:11:29.526Z,70.03
2022-12-20T07:13:58.027Z,67.22
2022-12-20T07:16:25.698Z,70.15
2022-12-20T07:18:54.111Z,71.97
2022-12-20T07:21:22.127Z,74.15
2022-12-20T07:23:49.774Z,71.85
2022-12-20T07:26:17.050Z,72.20
2022-12-20T07:28:44.714Z,70.32
2022-12-20T07:31:12.073Z,65.85
2022-12-20T07:33:39.687Z,69.68
2022-12-20T07:36:12.518Z,72.80
2022-12-20T07:38:39.995Z,68.75
2022-12-20T07:41:16.819Z,61.70
2022-12-20T07:43:44.207Z,64.68
2022-12-20T07:46:15.779Z,65.28
2022-12-20T07:48:44.658Z,63.00
2022-12-20T07:51:32.284Z,54.67
2022-12-20T07:54:10.570Z,58.58
2022-12-20T07:56:44.217Z,63.67
2022-12-20T07:59:17.943Z,81.00
2022-12-20T08:01:46.548Z,79.05
2022-12-20T08:04:21.937Z,81.25
2022-12-20T08:06:51.144Z,83.88
2022-12-20T08:09:19.259Z,75.90
2022-12-20T08:11:50.121Z,88.78
2022-12-20T08:14:19.531Z,71.65
2022-12-20T08:16:46.756Z,74.60
2022-12-20T08:19:13.963Z,72.35
2022-12-20T08:21:41.129Z,74.13
2022-12-20T08:24:08.885Z,69.47
2022-12-20T08:26:41.784Z,65.03
2022-12-20T08:29:09.823Z,68.60
2022-12-20T08:31:49.480Z,70.55
2022-12-20T08:34:18.868Z,67.63
2022-12-20T08:36:46.047Z,74.65
2022-12-20T08:39:13.466Z,74.70
2022-12-20T08:41:40.656Z,67.53
2022-12-20T08:44:08.557Z,69.70
2022-12-20T08:46:37.070Z,65.97
2022-12-20T08:49:06.107Z,62.25
2022-12-20T08:51:33.680Z,64.85
2022-12-20T08:54:02.560Z,62.00
2022-12-20T08:56:29.889Z,64.18
2022-12-20T08:58:57.533Z,61.42
2022-12-20T09:01:26.860Z,61.60
2022-12-20T09:03:54.227Z,58.03
2022-12-20T09:06:23.202Z,61.80
2022-12-20T09:08:51.156Z,69.50
2022-12-20T09:11:25.198Z,62.55
2022-12-20T09:13:57.350Z,60.85
2022-12-20T09:16:31.926Z,59.50
2022-12-20T09:19:05.583Z,56.17
2022-12-20T09:21:34.883Z,54.55
2022-12-20T09:24:02.354Z,49.67
2022-12-20T09:26:30.588Z,49.95
2022-12-20T09:28:58.740Z,54.22
2022-12-20T09:31:27.144Z,54.95
2022-12-20T09:33:57.881Z,53.97
2022-12-20T09:36:29.588Z,50.38
2022-12-20T09:38:57.624Z,48.30
2022-12-20T09:41:41.272Z,50.58
2022-12-20T09:44:30.931Z,51.60
2022-12-20T09:47:21.324Z,50.20
2022-12-20T09:49:55.249Z,53.92
2022-12-20T09:53:22.416Z,57.75
2022-12-20T09:56:03.919Z,56.25
2022-12-20T09:59:06.457Z,51.72
2022-12-20T10:01:40.001Z,54.80
2022-12-20T10:04:26.762Z,55.30
2022-12-20T10:07:19.637Z,53.72
2022-12-20T10:10:36.302Z,49.92
2022-12-20T10:13:26.167Z,51.40
2022-12-20T10:16:36.063Z,57.45
2022-12-20T10:19:43.833Z,49.28
2022-12-20T10:22:27.587Z,52.35
2022-12-20T10:25:25.172Z,54.97
2022-12-20T10:27:57.037Z,47.20
2022-12-20T10:30:28.151Z,50.30
2022-12-20T10:32:58.816Z,51.50
2022-12-20T10:35:41.378Z,44.90
2022-12-20T10:38:13.329Z,40.60
2022-12-20T10:41:21.756Z,45.67
2022-12-20T10:44:24.292Z,49.75
2022-12-20T10:46:59.561Z,44.70
2022-12-20T10:49:40.983Z,42.30
2022-12-20T10:52:08.222Z,46.45
2022-12-20T10:54:43.104Z,41.95
2022-12-20T10:57:29.447Z,36.33
2022-12-20T11:00:09.025Z,36.38
2022-12-20T11:02:42.391Z,35.03
2022-12-20T11:05:12.807Z,30.38
2022-12-20T11:10:46.432Z,34.33
2022-12-20T11:13:26.221Z,28.52
2022-12-20T11:15:57.694Z,30.63
2022-12-20T11:18:52.836Z,34.70
2022-12-20T11:21:56.647Z,34.92
2022-12-20T11:25:14.759Z,29.40
2022-12-20T11:28:10.500Z,31.90
2022-12-20T11:31:21.781Z,31.17
2022-12-20T11:34:22.848Z,29.27
2022-12-20T11:37:30.658Z,30.98
2022-12-20T11:40:28.156Z,31.60
2022-12-20T11:43:13.674Z,31.33
2022-12-20T11:46:30.650Z,32.00
2022-12-20T11:49:14.024Z,38.08
2022-12-20T11:52:33.433Z,30.25
2022-12-20T11:55:21.693Z,26.85
2022-12-20T11:58:21.081Z,28.13
2022-12-20T12:01:05.389Z,33.50
2022-12-20T12:04:17.132Z,37.08
2022-12-20T12:07:02.873Z,43.83
2022-12-20T12:10:09.723Z,55.80
2022-12-20T12:12:58.074Z,51.70
2022-12-20T12:16:03.428Z,46.70
2022-12-20T12:18:36.984Z,51.78
2022-12-20T12:21:26.358Z,48.03
2022-12-20T12:24:30.980Z,47.13
2022-12-20T12:27:02.146Z,50.15
2022-12-20T12:29:32.824Z,48.65
2022-12-20T12:32:09.927Z,45.42
2022-12-20T12:35:17.403Z,50.65
2022-12-20T12:38:15.553Z,48.28
2022-12-20T12:41:32.754Z,49.75
2022-12-20T12:44:54.310Z,70.63
2022-12-20T12:48:19.546Z,50.50
2022-12-20T12:50:53.996Z,51.50
2022-12-20T12:53:44.825Z,45.60
2022-12-20T12:56:52.022Z,51.67
2022-12-20T13:02:15.264Z,47.13
2022-12-20T13:05:07.065Z,48.72
2022-12-20T13:07:35.102Z,42.55
2022-12-20T13:10:25.057Z,47.92
2022-12-20T13:12:52.814Z,47.15
2022-12-20T13:15:22.883Z,47.15
2022-12-20T13:17:57.021Z,52.28
2022-12-20T13:20:33.714Z,48.78
2022-12-20T13:23:23.920Z,44.60
2022-12-20T13:25:52.654Z,58.13
2022-12-20T13:28:20.455Z,46.13
2022-12-20T13:31:09.853Z,46.60
2022-12-20T13:33:51.514Z,47.28
2022-12-20T13:36:37.773Z,48.20
2022-12-20T13:39:25.510Z,46.67
2022-12-20T13:42:41.489Z,51.03
2022-12-20T13:45:15.404Z,56.97
2022-12-20T13:48:01.287Z,43.25
2022-12-20T13:50:40.429Z,47.75
2022-12-20T13:53:19.900Z,43.60
2022-12-20T13:55:48.758Z,42.13
2022-12-20T13:58:36.904Z,42.63
2022-12-20T14:01:13.370Z,43.70
2022-12-20T14:03:46.256Z,41.95
2022-12-20T14:06:15.594Z,43.75
2022-12-20T14:08:49.784Z,46.42
2022-12-20T14:11:28.095Z,49.45
2022-12-20T14:14:03.007Z,48.47
2022-12-20T14:16:33.465Z,46.38
2022-12-20T14:19:07.610Z,45.47
2022-12-20T14:21:43.046Z,47.35
2022-12-20T14:24:22.603Z,51.85
2022-12-20T14:26:53.709Z,44.13
2022-12-20T14:29:30.963Z,47.50
2022-12-20T14:31:58.351Z,46.20
2022-12-20T14:34:36.701Z,47.85
2022-12-20T14:37:53.107Z,47.45
2022-12-20T14:40:21.495Z,47.90
2022-12-20T14:42:48.896Z,44.30
2022-12-20T14:45:21.375Z,49.25
2022-12-20T14:48:09.320Z,50.15
2022-12-20T14:50:40.679Z,44.25
2022-12-20T14:53:30.239Z,46.83
2022-12-20T14:55:58.170Z,52.50
2022-12-20T14:58:32.070Z,48.83
2022-12-20T15:01:27.187Z,51.38
2022-12-20T15:04:00.307Z,46.42
2022-12-20T15:06:52.500Z,50.20
2022-12-20T15:09:20.413Z,51.72
2022-12-20T15:11:48.676Z,53.47
2022-12-20T15:14:37.299Z,48.55
2022-12-20T15:17:13.193Z,46.78
2022-12-20T15:19:42.839Z,48.88
2022-12-20T15:22:18.779Z,44.92
2022-12-20T15:27:14.878Z,49.17
2022-12-20T15:29:43.168Z,47.55
2022-12-20T15:32:32.010Z,49.03
2022-12-20T15:34:59.265Z,49.40
2022-12-20T15:37:26.510Z,44.10
2022-12-20T15:39:53.735Z,49.35
2022-12-20T15:42:22.879Z,48.03
2022-12-20T15:44:50.594Z,49.83
2022-12-20T15:47:17.849Z,51.78
2022-12-20T15:49:50.130Z,49.83
2022-12-20T15:52:23.706Z,52.00
2022-12-20T15:54:51.351Z,50.88
2022-12-20T15:57:18.553Z,44.45
2022-12-20T16:00:03.410Z,51.58
2022-12-20T16:02:39.142Z,48.60
2022-12-20T16:05:10.934Z,52.42
2022-12-20T16:07:38.253Z,53.70
2022-12-20T16:10:07.949Z,49.85
2022-12-20T16:12:36.544Z,46.45
2022-12-20T16:15:05.102Z,59.47
2022-12-20T16:17:32.337Z,55.33
2022-12-20T16:19:59.543Z,63.25
2022-12-20T16:22:26.883Z,69.70
2022-12-20T16:24:54.334Z,60.13
2022-12-20T16:27:21.593Z,62.42
2022-12-20T16:29:48.895Z,70.53
2022-12-20T16:32:19.756Z,79.88
2022-12-20T16:34:49.737Z,76.97
2022-12-20T16:37:17.250Z,75.68
2022-12-20T16:39:44.993Z,68.93
2022-12-20T16:42:20.917Z,63.80
2022-12-20T16:44:52.992Z,63.42
2022-12-20T16:47:20.405Z,56.72
2022-12-20T16:49:52.834Z,58.35
2022-12-20T16:52:22.733Z,56.28
2022-12-20T16:54:50.824Z,49.20
2022-12-20T16:57:18.339Z,56.35
2022-12-20T16:59:45.508Z,56.55
2022-12-20T17:02:34.971Z,49.22
2022-12-20T17:05:02.576Z,48.47
2022-12-20T17:07:29.828Z,55.80
2022-12-20T17:09:59.194Z,54.17
2022-12-20T17:12:26.536Z,54.13
2022-12-20T17:14:53.711Z,51.38
2022-12-20T17:17:20.987Z,53.22
2022-12-20T17:19:48.213Z,57.58
2022-12-20T17:25:03.157Z,62.65
2022-12-20T17:27:30.465Z,59.55
2022-12-20T17:29:57.716Z,51.53
2022-12-20T17:32:26.116Z,52.90
2022-12-20T17:34:54.379Z,53.05
2022-12-20T17:37:21.853Z,54.58
2022-12-20T17:39:49.225Z,57.28
2022-12-20T17:42:16.835Z,55.13
2022-12-20T17:44:46.134Z,53.42
2022-12-20T17:47:13.581Z,53.13
2022-12-20T17:49:40.863Z,53.95
2022-12-20T17:52:16.212Z,50.90
2022-12-20T17:54:43.464Z,58.05
2022-12-20T17:57:15.829Z,53.88
2022-12-20T17:59:43.798Z,50.22
2022-12-20T18:02:23.215Z,55.17
2022-12-20T18:04:51.420Z,54.95
2022-12-20T18:07:18.696Z,52.28
2022-12-20T18:09:49.259Z,56.08
2022-12-20T18:12:17.896Z,53.60
2022-12-20T18:14:45.218Z,54.75
2022-12-20T18:17:12.507Z,52.85
2022-12-20T18:19:40.782Z,51.72
2022-12-20T18:22:08.101Z,53.20
2022-12-20T18:24:35.294Z,57.13
2022-12-20T18:27:02.551Z,61.28
2022-12-20T18:29:30.131Z,54.08
2022-12-20T18:31:57.644Z,53.63
2022-12-20T18:34:25.024Z,54.40
2022-12-20T18:36:52.257Z,52.28
2022-12-20T18:39:19.617Z,58.15
2022-12-20T18:41:48.264Z,53.50
2022-12-20T18:44:15.680Z,73.07
2022-12-20T18:46:42.910Z,62.58
2022-12-20T18:49:10.216Z,70.32
2022-12-20T18:51:37.495Z,63.08
2022-12-20T18:54:08.055Z,67.28
2022-12-20T18:56:38.532Z,67.28
2022-12-20T18:59:12.059Z,61.30
2022-12-20T19:01:42.337Z,63.92
2022-12-20T19:04:11.109Z,59.28
2022-12-20T19:06:38.727Z,65.53
2022-12-20T19:09:10.947Z,60.47
2022-12-20T19:11:39.582Z,53.08
2022-12-20T19:14:07.842Z,57.83
2022-12-20T19:16:35.805Z,60.38
2022-12-20T19:19:04.220Z,58.25
2022-12-20T19:21:35.145Z,58.00
2022-12-20T19:24:06.944Z,53.63
2022-12-20T19:26:37.523Z,61.67
2022-12-20T19:29:06.450Z,62.67
2022-12-20T19:31:37.490Z,51.67
2022-12-20T19:34:11.213Z,53.70
2022-12-20T19:36:43.123Z,54.30
2022-12-20T19:39:22.126Z,65.90
2022-12-20T19:42:21.828Z,57.17
2022-12-20T19:44:37.832Z,55.85
2022-12-20T19:47:05.341Z,55.63
2022-12-20T19:49:32.727Z,54.70
2022-12-20T19:51:59.989Z,56.00
2022-12-20T19:54:27.567Z,56.38
2022-12-20T19:56:54.813Z,59.05
2022-12-20T19:59:22.211Z,59.65
2022-12-20T20:01:49.544Z,62.25
2022-12-20T20:04:16.803Z,57.30
2022-12-20T20:06:44.181Z,58.90
2022-12-20T20:09:11.422Z,65.70
2022-12-20T20:11:38.625Z,62.40
2022-12-20T20:14:09.176Z,59.35
2022-12-20T20:16:37.867Z,55.83
2022-12-20T20:19:05.561Z,59.63
2022-12-20T20:21:36.229Z,53.90
2022-12-20T20:24:04.063Z,56.60
2022-12-20T20:26:31.829Z,61.35
2022-12-20T20:29:02.356Z,58.10
2022-12-20T20:31:30.462Z,59.00
2022-12-20T20:33:58.481Z,59.35
2022-12-20T20:36:25.779Z,52.72
2022-12-20T20:38:53.265Z,60.10
2022-12-20T20:41:20.491Z,59.83
2022-12-20T20:43:48.024Z,54.42
2022-12-20T20:46:17.447Z,58.92
2022-12-20T20:48:45.708Z,53.45
2022-12-20T20:51:13.393Z,64.97
2022-12-20T20:53:41.014Z,66.18
2022-12-20T20:56:09.586Z,58.90
2022-12-20T20:58:38.017Z,65.80
2022-12-20T21:01:09.084Z,65.40
2022-12-20T21:03:37.377Z,58.40
2022-12-20T21:06:37.042Z,59.92
2022-12-20T21:08:55.468Z,57.28
2022-12-20T21:11:23.286Z,59.33
2022-12-20T21:13:50.567Z,61.67
2022-12-20T21:16:22.526Z,63.72
2022-12-20T21:18:56.912Z,63.70
2022-12-20T21:21:26.144Z,65.82
2022-12-20T21:23:54.901Z,59.72
2022-12-20T21:26:25.189Z,60.53
2022-12-20T21:29:00.951Z,61.03
2022-12-20T21:33:57.252Z,63.95
2022-12-20T21:36:24.936Z,67.93
2022-12-20T21:38:58.033Z,64.32
2022-12-20T21:41:28.405Z,66.55
2022-12-20T21:43:58.899Z,68.18
2022-12-20T21:46:29.099Z,66.00
2022-12-20T21:48:56.553Z,71.10
2022-12-20T21:51:27.103Z,74.78
2022-12-20T21:54:01.456Z,72.03
2022-12-20T21:56:34.128Z,74.15
2022-12-20T21:59:04.027Z,72.82
2022-12-20T22:01:32.107Z,78.30
2022-12-20T22:04:04.070Z,70.35
2022-12-20T22:06:32.452Z,75.25
2022-12-20T22:09:02.158Z,79.88
2022-12-20T22:11:29.402Z,75.97
2022-12-20T22:13:57.984Z,77.95
2022-12-20T22:16:30.043Z,76.95
2022-12-20T22:18:59.444Z,79.53
2022-12-20T22:21:31.362Z,79.30
2022-12-20T22:24:01.119Z,81.60
2022-12-20T22:26:32.080Z,82.25
2022-12-20T22:29:04.084Z,84.10
2022-12-20T22:31:32.245Z,85.50
2022-12-20T22:34:00.251Z,83.93
2022-12-20T22:36:28.409Z,85.60
2022-12-20T22:38:57.227Z,80.25
2022-12-20T22:41:34.816Z,79.97
2022-12-20T22:44:03.237Z,86.80
2022-12-20T22:46:30.922Z,83.07
2022-12-20T22:49:01.454Z,73.10
2022-12-20T22:51:30.840Z,79.15
2022-12-20T22:53:59.550Z,79.55
2022-12-20T22:56:27.177Z,84.82
2022-12-20T22:58:54.453Z,85.22
2022-12-20T23:01:21.960Z,75.28
2022-12-20T23:03:49.597Z,70.40
2022-12-20T23:06:20.735Z,74.38
2022-12-20T23:08:49.190Z,74.07
2022-12-20T23:11:45.758Z,72.97
2022-12-20T23:17:06.501Z,84.60
2022-12-20T23:19:53.336Z,75.60
2022-12-20T23:22:39.390Z,70.75
2022-12-20T23:25:18.127Z,71.00
2022-12-20T23:27:49.252Z,82.88
2022-12-20T23:30:22.254Z,79.43
2022-12-20T23:32:49.921Z,76.50
2022-12-20T23:35:20.007Z,77.38
2022-12-20T23:37:48.325Z,72.35
2022-12-20T23:40:17.433Z,75.00
2022-12-20T23:42:45.381Z,78.28
2022-12-20T23:45:12.613Z,75.00
2022-12-20T23:47:39.962Z,81.47
2022-12-20T23:50:08.246Z,75.30
2022-12-20T23:52:35.533Z,81.38
2022-12-20T23:55:03.140Z,79.97
2022-12-20T23:57:31.343Z,85.70
2022-12-20T23:59:58.684Z,77.63
